Time;durP1;ratioP1;P1;durP2;ratioP2;P2;SDS_P1;SDS_P2;PMS_P1;PMS_P2;Temp;Humidity;BMP_temperature;BMP_pressure;BME280_temperature;BME280_humidity;BME280_pressure;Samples;Min_cycle;Max_cycle;Signal;HPM_P1;HPM_P2
2021/01/06 00:00:20;;;;;;;9.25;3.53;;;;;;;;;;5023371;28;20041;-44
2021/01/06 00:02:48;;;;;;;9.73;4.22;;;;;;;;;;5022025;28;20037;-45
2021/01/06 00:05:20;;;;;;;8.63;3.80;;;;;;;;;;5021391;28;20087;-45
2021/01/06 00:07:45;;;;;;;8.77;3.85;;;;;;;;;;5016520;28;20030;-45
2021/01/06 00:10:11;;;;;;;8.27;3.72;;;;;;;;;;5022183;28;20037;-44
2021/01/06 00:12:38;;;;;;;8.15;3.45;;;;;;;;;;5021309;28;20034;-41
2021/01/06 00:15:04;;;;;;;7.18;3.65;;;;;;;;;;5023698;28;20673;-44
2021/01/06 00:17:29;;;;;;;7.93;3.80;;;;;;;;;;5019375;28;20038;-41
2021/01/06 00:19:54;;;;;;;8.15;3.60;;;;;;;;;;5023438;28;20455;-40
2021/01/06 00:22:20;;;;;;;8.38;3.40;;;;;;;;;;5019779;28;20041;-43
2021/01/06 00:24:45;;;;;;;8.43;3.47;;;;;;;;;;5024726;28;20063;-43
2021/01/06 00:27:11;;;;;;;9.45;3.50;;;;;;;;;;5019838;28;20144;-42
2021/01/06 00:29:36;;;;;;;6.18;3.40;;;;;;;;;;5018180;28;20115;-43
2021/01/06 00:32:01;;;;;;;9.25;3.65;;;;;;;;;;5022874;28;20041;-45
2021/01/06 00:34:27;;;;;;;7.95;3.58;;;;;;;;;;5015412;28;20469;-43
2021/01/06 00:36:52;;;;;;;6.43;3.00;;;;;;;;;;5024851;28;20033;-44
2021/01/06 00:39:17;;;;;;;10.20;3.63;;;;;;;;;;5025924;28;20514;-46
2021/01/06 00:41:43;;;;;;;8.13;3.38;;;;;;;;;;5025626;28;20048;-43
2021/01/06 00:44:08;;;;;;;8.15;3.33;;;;;;;;;;5024027;28;20040;-42
2021/01/06 00:46:34;;;;;;;6.63;3.28;;;;;;;;;;5021596;28;20072;-43
2021/01/06 00:48:59;;;;;;;6.20;3.00;;;;;;;;;;5024187;28;20490;-45
2021/01/06 00:51:24;;;;;;;9.00;3.33;;;;;;;;;;5020377;28;20164;-44
2021/01/06 00:53:50;;;;;;;6.13;3.63;;;;;;;;;;5022402;28;20036;-44
2021/01/06 00:56:15;;;;;;;8.10;3.33;;;;;;;;;;5026610;28;20106;-44
2021/01/06 00:58:40;;;;;;;6.72;3.40;;;;;;;;;;5025119;28;20048;-44
2021/01/06 01:01:06;;;;;;;6.75;3.17;;;;;;;;;;5024344;28;20064;-45
2021/01/06 01:03:32;;;;;;;4.88;2.88;;;;;;;;;;5025618;28;20041;-43
2021/01/06 01:05:58;;;;;;;7.38;3.38;;;;;;;;;;5022658;28;20065;-43
2021/01/06 01:08:24;;;;;;;9.15;3.30;;;;;;;;;;5023936;28;20115;-41
2021/01/06 01:10:49;;;;;;;7.47;3.22;;;;;;;;;;5022948;28;20550;-44
2021/01/06 01:13:24;;;;;;;6.80;3.13;;;;;;;;;;5021308;28;20040;-45
2021/01/06 01:15:51;;;;;;;6.88;3.03;;;;;;;;;;5023632;28;20041;-43
2021/01/06 01:18:17;;;;;;;5.15;2.90;;;;;;;;;;5026013;28;20127;-42
2021/01/06 01:20:46;;;;;;;6.35;3.25;;;;;;;;;;5024280;28;20039;-44
2021/01/06 01:23:11;;;;;;;4.53;2.80;;;;;;;;;;5027023;28;20033;-44
2021/01/06 01:25:37;;;;;;;6.28;2.88;;;;;;;;;;5020196;28;20068;-44
2021/01/06 01:28:02;;;;;;;7.15;2.75;;;;;;;;;;5025694;28;20045;-41
2021/01/06 01:30:27;;;;;;;5.07;2.75;;;;;;;;;;5022097;28;20526;-41
2021/01/06 01:32:53;;;;;;;5.68;2.63;;;;;;;;;;5022600;28;20089;-41
2021/01/06 01:35:22;;;;;;;6.43;3.17;;;;;;;;;;5022907;28;20583;-54
2021/01/06 01:37:47;;;;;;;5.65;3.20;;;;;;;;;;5024697;28;20482;-44
2021/01/06 01:40:36;;;;;;;6.93;3.30;;;;;;;;;;5023490;28;20045;-45
2021/01/06 01:43:15;;;;;;;6.32;2.75;;;;;;;;;;5026472;28;20048;-43
2021/01/06 01:45:50;;;;;;;6.03;2.33;;;;;;;;;;5032031;28;20045;-42
2021/01/06 01:48:18;;;;;;;4.68;2.67;;;;;;;;;;5031322;28;20029;-44
2021/01/06 01:50:46;;;;;;;5.40;2.88;;;;;;;;;;5030531;28;20021;-43
2021/01/06 01:53:11;;;;;;;4.72;2.78;;;;;;;;;;5023720;28;20033;-43
2021/01/06 01:55:37;;;;;;;4.97;2.58;;;;;;;;;;5021971;28;20122;-43
2021/01/06 01:58:03;;;;;;;5.47;2.80;;;;;;;;;;5023536;28;20052;-45
2021/01/06 02:00:29;;;;;;;5.22;2.67;;;;;;;;;;5021803;28;20534;-43
2021/01/06 02:06:23;;;;;;;5.30;2.67;;;;;;;;;;5017918;28;20128;-44
2021/01/06 02:08:56;;;;;;;3.78;2.40;;;;;;;;;;5021765;28;20032;-43
2021/01/06 02:11:26;;;;;;;7.35;2.50;;;;;;;;;;5019406;28;20037;-44
2021/01/06 02:13:55;;;;;;;4.13;2.47;;;;;;;;;;5024674;28;20021;-43
2021/01/06 02:16:32;;;;;;;4.85;2.30;;;;;;;;;;5018148;28;20037;-42
2021/01/06 02:18:57;;;;;;;6.20;2.60;;;;;;;;;;5017392;28;20044;-43
2021/01/06 02:21:23;;;;;;;4.80;2.80;;;;;;;;;;5026135;28;20033;-44
2021/01/06 02:23:49;;;;;;;2.42;2.05;;;;;;;;;;5023413;28;20044;-43
2021/01/06 02:26:14;;;;;;;4.78;2.25;;;;;;;;;;5017540;28;21911;-41
2021/01/06 02:28:40;;;;;;;3.88;2.35;;;;;;;;;;5025257;28;20124;-44
2021/01/06 02:31:05;;;;;;;4.47;2.45;;;;;;;;;;5025337;28;20041;-44
2021/01/06 02:33:30;;;;;;;3.95;2.28;;;;;;;;;;5023023;28;20547;-43
2021/01/06 02:35:56;;;;;;;4.10;2.20;;;;;;;;;;5018790;28;20648;-44
2021/01/06 02:38:21;;;;;;;5.22;2.70;;;;;;;;;;5023321;28;20569;-42
2021/01/06 02:40:47;;;;;;;5.20;2.50;;;;;;;;;;5020935;28;20044;-41
2021/01/06 02:43:12;;;;;;;4.13;2.35;;;;;;;;;;5024473;28;20060;-43
2021/01/06 02:45:38;;;;;;;4.20;2.50;;;;;;;;;;5020511;28;20037;-41
2021/01/06 02:48:03;;;;;;;3.72;2.25;;;;;;;;;;5020145;28;20039;-43
2021/01/06 02:50:29;;;;;;;4.97;2.25;;;;;;;;;;5022899;28;20086;-44
2021/01/06 02:52:54;;;;;;;3.15;2.33;;;;;;;;;;5021769;28;20169;-44
2021/01/06 02:55:19;;;;;;;4.07;2.50;;;;;;;;;;5024462;28;20024;-44
2021/01/06 02:57:45;;;;;;;2.97;2.08;;;;;;;;;;5016585;28;20131;-44
2021/01/06 03:00:12;;;;;;;3.50;2.28;;;;;;;;;;5020451;28;20076;-42
2021/01/06 03:02:37;;;;;;;4.07;2.50;;;;;;;;;;5021038;28;20739;-42
2021/01/06 03:05:19;;;;;;;4.20;2.38;;;;;;;;;;5017152;28;20033;-42
2021/01/06 03:07:44;;;;;;;3.03;2.20;;;;;;;;;;5018926;28;20059;-43
2021/01/06 03:10:12;;;;;;;2.95;2.17;;;;;;;;;;5024423;28;20647;-40
2021/01/06 03:12:37;;;;;;;5.03;2.20;;;;;;;;;;5023324;28;20029;-38
2021/01/06 03:15:03;;;;;;;3.30;2.05;;;;;;;;;;5016512;28;20035;-42
2021/01/06 03:17:29;;;;;;;4.15;2.20;;;;;;;;;;5014402;28;20553;-41
2021/01/06 03:19:56;;;;;;;5.07;2.60;;;;;;;;;;5001458;28;20045;-41
2021/01/06 03:22:23;;;;;;;3.28;2.05;;;;;;;;;;5000014;28;20044;-43
2021/01/06 03:24:50;;;;;;;2.67;2.00;;;;;;;;;;4999555;28;20091;-41
2021/01/06 03:27:15;;;;;;;2.65;2.13;;;;;;;;;;5017864;28;20073;-43
2021/01/06 03:29:41;;;;;;;6.20;2.13;;;;;;;;;;5012608;28;20138;-45
2021/01/06 03:32:19;;;;;;;4.82;2.30;;;;;;;;;;5011630;28;20053;-43
2021/01/06 03:34:45;;;;;;;2.95;1.98;;;;;;;;;;5023799;28;20406;-43
2021/01/06 03:37:11;;;;;;;3.42;1.95;;;;;;;;;;5021351;28;20037;-43
2021/01/06 03:39:44;;;;;;;2.85;2.00;;;;;;;;;;5019286;28;20112;-43
2021/01/06 03:42:10;;;;;;;3.33;1.90;;;;;;;;;;5020772;28;20028;-43
2021/01/06 03:44:35;;;;;;;2.78;1.95;;;;;;;;;;5018991;28;20448;-40
2021/01/06 03:47:00;;;;;;;3.88;2.30;;;;;;;;;;5019528;28;20051;-42
2021/01/06 03:49:41;;;;;;;2.65;1.85;;;;;;;;;;5018947;28;20581;-40
2021/01/06 03:52:12;;;;;;;2.92;1.83;;;;;;;;;;5018839;28;20021;-44
2021/01/06 03:54:44;;;;;;;4.72;1.95;;;;;;;;;;5022285;28;20036;-43
2021/01/06 03:57:09;;;;;;;2.50;1.90;;;;;;;;;;5019199;28;20016;-39
2021/01/06 03:59:35;;;;;;;3.25;2.08;;;;;;;;;;5019024;28;20036;-44
2021/01/06 04:02:19;;;;;;;3.17;2.10;;;;;;;;;;5021560;28;22378;-43
2021/01/06 04:04:47;;;;;;;3.03;2.00;;;;;;;;;;5023632;28;20028;-42
2021/01/06 04:07:33;;;;;;;2.65;2.08;;;;;;;;;;5020803;28;20025;-41
2021/01/06 04:10:01;;;;;;;3.65;2.25;;;;;;;;;;5022369;28;20752;-43
2021/01/06 04:12:27;;;;;;;3.85;1.90;;;;;;;;;;5023323;28;20024;-41
2021/01/06 04:14:52;;;;;;;4.68;2.08;;;;;;;;;;5023806;28;20865;-43
2021/01/06 04:17:25;;;;;;;3.33;1.83;;;;;;;;;;5022315;28;20037;-42
2021/01/06 04:19:55;;;;;;;2.10;1.70;;;;;;;;;;5023785;28;20187;-43
2021/01/06 04:22:55;;;;;;;2.20;1.70;;;;;;;;;;5022838;28;20036;-45
2021/01/06 04:25:27;;;;;;;2.72;1.80;;;;;;;;;;5022838;28;22013;-43
2021/01/06 04:27:58;;;;;;;2.10;1.60;;;;;;;;;;5022774;28;20041;-43
2021/01/06 04:30:24;;;;;;;2.03;1.58;;;;;;;;;;5023082;28;20031;-43
2021/01/06 04:32:50;;;;;;;2.80;1.63;;;;;;;;;;5021859;28;20010;-44
2021/01/06 04:35:24;;;;;;;2.78;1.77;;;;;;;;;;5023710;28;20693;-40
2021/01/06 04:37:52;;;;;;;3.05;1.90;;;;;;;;;;5024591;28;20017;-43
2021/01/06 04:40:26;;;;;;;4.93;2.10;;;;;;;;;;5025503;28;20025;-38
2021/01/06 04:43:52;;;;;;;2.53;1.80;;;;;;;;;;5024574;28;20033;-41
2021/01/06 04:46:40;;;;;;;2.50;1.75;;;;;;;;;;5022168;28;20041;-44
2021/01/06 04:49:47;;;;;;;3.35;1.90;;;;;;;;;;5023334;28;20033;-43
2021/01/06 04:52:28;;;;;;;2.92;1.55;;;;;;;;;;5020407;28;20029;-39
2021/01/06 04:55:26;;;;;;;3.75;1.73;;;;;;;;;;5027230;28;20031;-38
2021/01/06 05:04:17;;;;;;;6.18;2.47;;;;;;;;;;5035166;28;20402;-43
2021/01/06 05:06:57;;;;;;;6.82;2.67;;;;;;;;;;5021137;28;20056;-44
2021/01/06 05:09:44;;;;;;;4.80;1.83;;;;;;;;;;5026132;28;20031;-43
2021/01/06 05:12:51;;;;;;;6.70;1.92;;;;;;;;;;5021208;28;20021;-43
2021/01/06 05:15:51;;;;;;;;;;;;;;;;;;;;;
2021/01/06 05:18:40;;;;;;;3.10;2.13;;;;;;;;;;5025870;28;20041;-44
2021/01/06 05:21:25;;;;;;;2.47;1.73;;;;;;;;;;5023549;28;20495;-44
2021/01/06 05:23:51;;;;;;;3.20;1.55;;;;;;;;;;5019943;28;20029;-42
2021/01/06 05:26:54;;;;;;;2.47;1.80;;;;;;;;;;5019708;28;20045;-43
2021/01/06 05:29:49;;;;;;;2.70;1.90;;;;;;;;;;5024316;28;20037;-44
2021/01/06 05:32:42;;;;;;;3.30;1.83;;;;;;;;;;5025227;28;20143;-44
2021/01/06 05:35:39;;;;;;;2.55;1.60;;;;;;;;;;5015948;28;21577;-43
2021/01/06 05:38:42;;;;;;;3.50;1.70;;;;;;;;;;5024840;28;20033;-43
2021/01/06 05:41:07;;;;;;;2.45;1.60;;;;;;;;;;5025220;28;20745;-43
2021/01/06 05:43:49;;;;;;;3.92;1.50;;;;;;;;;;5024351;28;20168;-44
2021/01/06 05:46:33;;;;;;;2.10;1.55;;;;;;;;;;5024839;28;20041;-42
2021/01/06 05:49:12;;;;;;;2.53;1.38;;;;;;;;;;5027981;28;20541;-43
2021/01/06 05:51:43;;;;;;;2.53;1.90;;;;;;;;;;5017376;28;20114;-43
2021/01/06 05:54:16;;;;;;;2.17;1.60;;;;;;;;;;5023050;28;20108;-44
2021/01/06 05:56:46;;;;;;;1.67;1.50;;;;;;;;;;5023356;28;20017;-44
2021/01/06 05:59:20;;;;;;;1.73;1.35;;;;;;;;;;5022557;28;20029;-44
2021/01/06 06:01:52;;;;;;;1.98;1.40;;;;;;;;;;5019224;28;20051;-42
2021/01/06 06:04:19;;;;;;;2.38;1.40;;;;;;;;;;5021177;28;20025;-43
2021/01/06 06:06:51;;;;;;;3.20;1.30;;;;;;;;;;5020611;28;20029;-40
2021/01/06 06:09:31;;;;;;;2.28;1.35;;;;;;;;;;5025342;28;21973;-42
2021/01/06 06:11:59;;;;;;;2.00;1.63;;;;;;;;;;5019870;28;20836;-43
2021/01/06 06:14:24;;;;;;;1.90;1.40;;;;;;;;;;5023405;28;20054;-41
2021/01/06 06:16:59;;;;;;;1.98;1.30;;;;;;;;;;5023620;28;20112;-44
2021/01/06 06:19:28;;;;;;;2.45;1.73;;;;;;;;;;5020264;28;20063;-40
2021/01/06 06:22:01;;;;;;;2.72;1.55;;;;;;;;;;5025028;28;20058;-44
2021/01/06 06:24:37;;;;;;;1.77;1.50;;;;;;;;;;5022949;28;20522;-41
2021/01/06 06:27:22;;;;;;;2.55;1.40;;;;;;;;;;5020108;28;20138;-44
2021/01/06 06:30:06;;;;;;;2.75;1.50;;;;;;;;;;5023448;28;20069;-39
2021/01/06 06:32:31;;;;;;;2.10;1.20;;;;;;;;;;5020703;28;20048;-44
2021/01/06 06:35:04;;;;;;;1.40;1.30;;;;;;;;;;5022152;28;20454;-43
2021/01/06 06:37:29;;;;;;;3.35;1.58;;;;;;;;;;5019862;28;20040;-44
2021/01/06 06:39:57;;;;;;;1.60;1.20;;;;;;;;;;5019855;28;20425;-44
2021/01/06 06:42:23;;;;;;;1.98;1.15;;;;;;;;;;5025076;28;20033;-41
2021/01/06 06:44:58;;;;;;;1.52;1.20;;;;;;;;;;5024390;28;20900;-42
2021/01/06 06:47:30;;;;;;;1.67;1.35;;;;;;;;;;5019660;28;21867;-45
2021/01/06 06:49:55;;;;;;;2.22;1.48;;;;;;;;;;5024573;28;20110;-44
2021/01/06 06:52:23;;;;;;;2.22;1.40;;;;;;;;;;5023548;28;20033;-44
2021/01/06 06:54:52;;;;;;;2.95;1.60;;;;;;;;;;5021391;28;20025;-43
2021/01/06 06:57:22;;;;;;;2.33;1.55;;;;;;;;;;5019216;28;20120;-44
2021/01/06 07:00:13;;;;;;;1.25;1.15;;;;;;;;;;5025189;28;20033;-44
2021/01/06 07:02:46;;;;;;;1.17;1.08;;;;;;;;;;5021296;28;20049;-44
2021/01/06 07:05:20;;;;;;;2.47;1.48;;;;;;;;;;5018469;28;20490;-46
2021/01/06 07:07:46;;;;;;;1.85;1.48;;;;;;;;;;5022395;28;20029;-43
2021/01/06 07:10:14;;;;;;;1.60;1.13;;;;;;;;;;5022685;28;20091;-45
2021/01/06 07:12:39;;;;;;;1.88;1.20;;;;;;;;;;5018929;28;20036;-44
2021/01/06 07:15:05;;;;;;;2.38;1.48;;;;;;;;;;5020710;28;20043;-44
2021/01/06 07:17:32;;;;;;;1.52;1.35;;;;;;;;;;5018162;28;20548;-38
2021/01/06 07:19:58;;;;;;;2.20;1.38;;;;;;;;;;5023209;28;20030;-44
2021/01/06 07:22:30;;;;;;;1.90;1.20;;;;;;;;;;5022046;28;20040;-42
2021/01/06 07:24:56;;;;;;;1.30;1.20;;;;;;;;;;5017203;28;20017;-45
2021/01/06 07:27:22;;;;;;;1.50;1.40;;;;;;;;;;5020324;28;20031;-45
2021/01/06 07:29:50;;;;;;;1.05;1.00;;;;;;;;;;5016886;28;20045;-44
2021/01/06 07:32:15;;;;;;;1.70;1.40;;;;;;;;;;5017003;28;20126;-43
2021/01/06 07:34:47;;;;;;;1.60;1.15;;;;;;;;;;5020800;28;20072;-45
2021/01/06 07:37:31;;;;;;;2.38;1.30;;;;;;;;;;5019989;28;20130;-42
2021/01/06 07:39:57;;;;;;;1.75;1.13;;;;;;;;;;5020460;28;20087;-44
2021/01/06 07:42:38;;;;;;;1.48;1.23;;;;;;;;;;5021966;28;20033;-44
2021/01/06 07:45:09;;;;;;;1.02;0.98;;;;;;;;;;5016757;28;20037;-43
2021/01/06 07:47:35;;;;;;;1.52;1.27;;;;;;;;;;5022131;28;20182;-41
2021/01/06 07:50:00;;;;;;;1.40;1.20;;;;;;;;;;5020740;28;21013;-43
2021/01/06 07:52:39;;;;;;;1.60;1.20;;;;;;;;;;5019791;28;20458;-42
2021/01/06 07:55:16;;;;;;;1.17;1.08;;;;;;;;;;5019095;28;20017;-44
2021/01/06 07:57:43;;;;;;;1.83;1.10;;;;;;;;;;5019751;28;20028;-44
2021/01/06 08:00:09;;;;;;;1.60;1.30;;;;;;;;;;5023483;28;20035;-44
2021/01/06 08:02:37;;;;;;;1.20;1.10;;;;;;;;;;5021413;28;20056;-45
2021/01/06 08:05:02;;;;;;;2.67;1.30;;;;;;;;;;5021306;28;20037;-45
2021/01/06 08:07:28;;;;;;;2.75;1.40;;;;;;;;;;5022240;28;20041;-43
2021/01/06 08:09:54;;;;;;;5.78;1.40;;;;;;;;;;5022098;28;20029;-45
2021/01/06 08:12:38;;;;;;;5.35;1.80;;;;;;;;;;5022160;28;20044;-42
2021/01/06 08:15:12;;;;;;;25.52;2.53;;;;;;;;;;5017930;28;20033;-44
2021/01/06 08:18:00;;;;;;;8.43;2.17;;;;;;;;;;5019574;28;20060;-45
2021/01/06 08:20:27;;;;;;;4.45;2.17;;;;;;;;;;5023556;28;20506;-44
2021/01/06 08:22:57;;;;;;;2.05;1.40;;;;;;;;;;5027563;28;20037;-43
2021/01/06 08:25:29;;;;;;;4.28;1.50;;;;;;;;;;5027546;28;20071;-44
2021/01/06 08:27:55;;;;;;;5.35;2.63;;;;;;;;;;5027417;28;20573;-43
2021/01/06 08:30:27;;;;;;;6.82;1.55;;;;;;;;;;5027489;28;20041;-44
2021/01/06 08:33:05;;;;;;;2.42;1.17;;;;;;;;;;5033312;28;20029;-44
2021/01/06 08:35:34;;;;;;;6.57;1.33;;;;;;;;;;5029281;28;20060;-41
2021/01/06 08:38:00;;;;;;;3.22;1.05;;;;;;;;;;5028345;28;20037;-43
2021/01/06 08:40:38;;;;;;;3.10;1.55;;;;;;;;;;5031924;28;20033;-43
2021/01/06 08:43:10;;;;;;;1.85;1.25;;;;;;;;;;5030859;28;20034;-44
2021/01/06 08:45:37;;;;;;;3.17;1.45;;;;;;;;;;5031677;28;20025;-43
2021/01/06 08:48:14;;;;;;;1.55;1.30;;;;;;;;;;5028859;28;20039;-44
2021/01/06 08:50:40;;;;;;;6.28;1.42;;;;;;;;;;5030444;28;20095;-41
2021/01/06 08:53:05;;;;;;;6.10;1.42;;;;;;;;;;5026438;28;22553;-44
2021/01/06 08:55:35;;;;;;;2.75;1.35;;;;;;;;;;5031017;28;20040;-44
2021/01/06 08:58:05;;;;;;;1.40;1.00;;;;;;;;;;5032796;28;20732;-40
2021/01/06 09:00:32;;;;;;;2.17;1.38;;;;;;;;;;5033258;28;20547;-40
2021/01/06 09:03:00;;;;;;;2.45;1.50;;;;;;;;;;5032452;28;20025;-40
2021/01/06 09:05:44;;;;;;;1.30;1.10;;;;;;;;;;5028093;28;20406;-43
2021/01/06 09:08:23;;;;;;;1.92;1.33;;;;;;;;;;5030090;28;20376;-42
2021/01/06 09:10:53;;;;;;;3.33;1.30;;;;;;;;;;5031823;28;20025;-43
2021/01/06 09:13:19;;;;;;;3.33;1.27;;;;;;;;;;5028277;28;20025;-43
2021/01/06 09:15:53;;;;;;;2.00;1.40;;;;;;;;;;5028168;28;20639;-43
2021/01/06 09:18:38;;;;;;;2.17;1.48;;;;;;;;;;5024311;28;20053;-44
2021/01/06 09:21:03;;;;;;;1.45;1.33;;;;;;;;;;5028534;28;20497;-44
2021/01/06 09:23:29;;;;;;;1.47;1.20;;;;;;;;;;5035110;28;20029;-43
2021/01/06 09:25:54;;;;;;;1.20;1.10;;;;;;;;;;5033300;28;20326;-45
2021/01/06 09:28:20;;;;;;;1.23;0.98;;;;;;;;;;5030058;28;20033;-44
2021/01/06 09:30:45;;;;;;;2.70;1.35;;;;;;;;;;5028004;28;20040;-41
2021/01/06 09:33:23;;;;;;;1.45;1.30;;;;;;;;;;5033930;28;20041;-43
2021/01/06 09:35:49;;;;;;;2.67;1.17;;;;;;;;;;5028366;28;20051;-43
2021/01/06 09:38:20;;;;;;;1.92;1.10;;;;;;;;;;5032877;28;20045;-42
2021/01/06 09:40:45;;;;;;;2.28;1.15;;;;;;;;;;5034861;28;20097;-43
2021/01/06 09:43:37;;;;;;;7.25;3.40;;;;;;;;;;5029573;28;20120;-44
2021/01/06 09:46:03;;;;;;;6.63;3.35;;;;;;;;;;5031533;28;20033;-43
2021/01/06 09:48:29;;;;;;;7.80;3.30;;;;;;;;;;5031261;28;20055;-44
2021/01/06 09:50:55;;;;;;;25.05;3.00;;;;;;;;;;5036740;28;20673;-44
2021/01/06 09:53:21;;;;;;;3.17;2.30;;;;;;;;;;5028890;28;20025;-39
2021/01/06 09:55:48;;;;;;;2.45;2.05;;;;;;;;;;5033443;28;20036;-43
2021/01/06 09:58:19;;;;;;;4.30;2.10;;;;;;;;;;5031108;28;20063;-42
2021/01/06 10:00:47;;;;;;;2.67;2.00;;;;;;;;;;5033626;28;21703;-44
2021/01/06 10:03:13;;;;;;;3.92;2.13;;;;;;;;;;5029794;28;20060;-41
2021/01/06 10:05:42;;;;;;;5.25;1.70;;;;;;;;;;5025852;28;22780;-44
2021/01/06 10:08:15;;;;;;;3.67;1.90;;;;;;;;;;5023698;28;20018;-43
2021/01/06 10:10:40;;;;;;;3.58;1.77;;;;;;;;;;5024796;28;20442;-41
2021/01/06 10:13:27;;;;;;;3.08;1.45;;;;;;;;;;5021004;28;20033;-43
2021/01/06 10:16:11;;;;;;;3.60;1.65;;;;;;;;;;5020445;28;20029;-43
2021/01/06 10:18:55;;;;;;;5.00;1.90;;;;;;;;;;5026782;28;20116;-44
2021/01/06 10:21:33;;;;;;;4.72;1.50;;;;;;;;;;5029863;28;20037;-44
2021/01/06 10:24:04;;;;;;;5.47;1.60;;;;;;;;;;5034812;28;20032;-42
2021/01/06 10:26:44;;;;;;;12.02;1.85;;;;;;;;;;5037384;28;20025;-44
2021/01/06 10:29:11;;;;;;;3.97;1.65;;;;;;;;;;5026219;28;20025;-45
2021/01/06 10:31:56;;;;;;;5.78;1.55;;;;;;;;;;5031960;28;20041;-42
2021/01/06 10:34:28;;;;;;;4.68;1.85;;;;;;;;;;5034382;28;20452;-44
2021/01/06 10:37:08;;;;;;;17.80;2.10;;;;;;;;;;5033848;28;20482;-38
2021/01/06 10:39:34;;;;;;;4.40;1.90;;;;;;;;;;5039912;28;20029;-44
2021/01/06 10:42:00;;;;;;;5.43;2.00;;;;;;;;;;5038041;28;20035;-42
2021/01/06 10:44:37;;;;;;;9.48;2.50;;;;;;;;;;5037110;28;20033;-43
2021/01/06 10:47:22;;;;;;;9.07;2.17;;;;;;;;;;5033711;28;20034;-41
2021/01/06 10:49:49;;;;;;;20.67;3.67;;;;;;;;;;5038535;28;20606;-44
2021/01/06 10:52:16;;;;;;;3.70;2.20;;;;;;;;;;5046823;28;20029;-44
2021/01/06 10:54:44;;;;;;;5.28;2.10;;;;;;;;;;5042703;28;20418;-44
2021/01/06 10:57:12;;;;;;;9.73;2.17;;;;;;;;;;5043048;28;20030;-37
2021/01/06 10:59:38;;;;;;;6.55;2.40;;;;;;;;;;5044358;28;20047;-44
2021/01/06 11:02:07;;;;;;;5.53;1.80;;;;;;;;;;5040162;28;20538;-44
2021/01/06 11:04:39;;;;;;;7.70;2.05;;;;;;;;;;5039062;28;20052;-43
2021/01/06 11:07:19;;;;;;;3.25;1.58;;;;;;;;;;5035244;28;20017;-43
2021/01/06 11:10:03;;;;;;;5.70;2.25;;;;;;;;;;5032823;28;20029;-44
2021/01/06 11:12:46;;;;;;;6.82;2.30;;;;;;;;;;5028280;28;20029;-44
2021/01/06 11:15:17;;;;;;;3.28;2.00;;;;;;;;;;5043928;28;20542;-44
2021/01/06 11:17:43;;;;;;;4.38;1.90;;;;;;;;;;5032330;28;20009;-43
2021/01/06 11:20:27;;;;;;;8.48;2.08;;;;;;;;;;5028598;28;20024;-43
2021/01/06 11:23:13;;;;;;;7.22;2.00;;;;;;;;;;5036406;28;20052;-44
2021/01/06 11:25:48;;;;;;;3.78;1.73;;;;;;;;;;5029953;28;20029;-43
2021/01/06 11:28:23;;;;;;;5.03;1.88;;;;;;;;;;5039680;28;20520;-44
2021/01/06 11:31:08;;;;;;;3.97;2.20;;;;;;;;;;5033922;28;20038;-43
2021/01/06 11:33:33;;;;;;;3.53;1.90;;;;;;;;;;5034964;28;20174;-43
2021/01/06 11:36:01;;;;;;;5.28;2.00;;;;;;;;;;5037225;28;20669;-42
2021/01/06 11:38:39;;;;;;;5.20;1.75;;;;;;;;;;5045798;28;20029;-41
2021/01/06 11:41:06;;;;;;;3.80;1.67;;;;;;;;;;5036183;28;20419;-39
2021/01/06 11:43:49;;;;;;;4.15;1.80;;;;;;;;;;5028542;28;20033;-43
2021/01/06 11:46:24;;;;;;;2.08;1.30;;;;;;;;;;5035791;28;20067;-44
2021/01/06 11:48:50;;;;;;;3.67;1.90;;;;;;;;;;5042830;28;20035;-42
2021/01/06 11:51:22;;;;;;;4.43;1.90;;;;;;;;;;5040225;28;20037;-43
2021/01/06 11:53:58;;;;;;;2.58;1.92;;;;;;;;;;5033586;28;20025;-39
2021/01/06 11:56:23;;;;;;;3.63;1.88;;;;;;;;;;5029015;28;20020;-44
2021/01/06 11:58:54;;;;;;;7.20;1.83;;;;;;;;;;5040026;28;20041;-44
2021/01/06 12:01:29;;;;;;;3.47;1.75;;;;;;;;;;5035642;28;20107;-42
2021/01/06 12:03:59;;;;;;;5.45;2.08;;;;;;;;;;5034435;28;20047;-43
2021/01/06 12:06:33;;;;;;;4.15;1.80;;;;;;;;;;5037960;28;20036;-44
2021/01/06 12:09:12;;;;;;;3.90;1.80;;;;;;;;;;5028684;28;20081;-40
2021/01/06 12:11:46;;;;;;;4.95;1.63;;;;;;;;;;5030624;28;20506;-43
2021/01/06 12:14:11;;;;;;;2.40;1.48;;;;;;;;;;5040540;28;20021;-43
2021/01/06 12:16:59;;;;;;;6.40;1.90;;;;;;;;;;5038397;28;20043;-44
2021/01/06 12:19:29;;;;;;;3.40;1.48;;;;;;;;;;5036864;28;20028;-43
2021/01/06 12:21:57;;;;;;;5.93;1.75;;;;;;;;;;5033358;28;20467;-44
2021/01/06 12:24:24;;;;;;;2.47;1.30;;;;;;;;;;5028828;28;20056;-43
2021/01/06 12:26:58;;;;;;;1.90;1.25;;;;;;;;;;5035106;28;20037;-44
2021/01/06 12:29:24;;;;;;;2.78;1.60;;;;;;;;;;5045276;28;20028;-43
2021/01/06 12:31:51;;;;;;;3.15;1.35;;;;;;;;;;5041164;28;20042;-42
2021/01/06 12:34:20;;;;;;;2.85;1.38;;;;;;;;;;5038706;28;20104;-45
2021/01/06 12:37:15;;;;;;;2.28;1.55;;;;;;;;;;5047699;28;20125;-43
2021/01/06 12:39:59;;;;;;;3.42;1.50;;;;;;;;;;5033162;28;20029;-43
2021/01/06 12:42:36;;;;;;;3.15;1.70;;;;;;;;;;5030642;28;20049;-43
2021/01/06 12:45:04;;;;;;;2.03;1.48;;;;;;;;;;5036128;28;20044;-45
2021/01/06 12:47:30;;;;;;;2.03;1.10;;;;;;;;;;5044856;28;20071;-41
2021/01/06 12:49:58;;;;;;;2.25;1.35;;;;;;;;;;5037011;28;20040;-40
2021/01/06 12:52:26;;;;;;;2.40;1.52;;;;;;;;;;5047528;28;20070;-39
2021/01/06 12:54:54;;;;;;;2.20;1.35;;;;;;;;;;5031667;28;20071;-42
2021/01/06 12:57:27;;;;;;;2.85;1.50;;;;;;;;;;5031796;28;20394;-44
2021/01/06 12:59:53;;;;;;;3.83;1.48;;;;;;;;;;5030379;28;20021;-44
2021/01/06 13:02:30;;;;;;;5.55;1.40;;;;;;;;;;5020464;28;20395;-43
2021/01/06 13:04:56;;;;;;;1.38;1.20;;;;;;;;;;5026430;28;20021;-44
2021/01/06 13:07:29;;;;;;;3.10;1.25;;;;;;;;;;5029299;28;20159;-44
2021/01/06 13:09:55;;;;;;;3.67;1.38;;;;;;;;;;5026075;28;20090;-41
2021/01/06 13:12:27;;;;;;;2.17;1.23;;;;;;;;;;5025086;28;20059;-47
2021/01/06 13:14:52;;;;;;;;;;;;;;;;;;5038445;28;20033;-46
2021/01/06 13:17:28;;;;;;;2.28;1.15;;;;;;;;;;5034358;28;19917;-42
2021/01/06 13:19:59;;;;;;;1.63;1.35;;;;;;;;;;5031859;28;20028;-48
2021/01/06 13:22:26;;;;;;;3.05;1.17;;;;;;;;;;5046448;28;20036;-47
2021/01/06 13:25:10;;;;;;;2.75;1.50;;;;;;;;;;5031862;28;20569;-45
2021/01/06 13:27:38;;;;;;;2.22;1.48;;;;;;;;;;5041774;28;20126;-47
2021/01/06 13:30:14;;;;;;;3.05;1.15;;;;;;;;;;5035392;28;20044;-47
2021/01/06 13:32:58;;;;;;;3.67;1.20;;;;;;;;;;5040072;28;20507;-44
2021/01/06 13:35:40;;;;;;;5.70;1.30;;;;;;;;;;5036154;28;20108;-44
2021/01/06 13:38:11;;;;;;;2.28;1.13;;;;;;;;;;5028567;28;20048;-46
2021/01/06 13:40:37;;;;;;;2.85;1.58;;;;;;;;;;5026853;28;20030;-44
2021/01/06 13:43:07;;;;;;;1.80;1.23;;;;;;;;;;5033444;28;20044;-39
2021/01/06 13:45:32;;;;;;;1.55;0.90;;;;;;;;;;5031617;28;20125;-43
2021/01/06 13:48:04;;;;;;;1.98;1.25;;;;;;;;;;5033094;28;20178;-44
2021/01/06 13:50:29;;;;;;;1.77;1.10;;;;;;;;;;5032968;28;20094;-44
2021/01/06 13:52:59;;;;;;;2.90;1.00;;;;;;;;;;5036039;28;20491;-48
2021/01/06 13:55:44;;;;;;;2.00;1.00;;;;;;;;;;5038135;28;20013;-46
2021/01/06 13:58:32;;;;;;;5.90;1.23;;;;;;;;;;5037365;28;20551;-44
2021/01/06 14:01:18;;;;;;;3.70;1.27;;;;;;;;;;5039251;28;20041;-47
2021/01/06 14:04:02;;;;;;;2.35;1.17;;;;;;;;;;5034242;28;20116;-48
2021/01/06 14:08:16;;;;;;;1.33;1.00;;;;;;;;;;4995450;27;20881;-45
2021/01/06 14:10:43;;;;;;;3.67;1.02;;;;;;;;;;4989934;28;20038;-47
2021/01/06 14:13:15;;;;;;;2.72;1.25;;;;;;;;;;4993160;28;20101;-46
2021/01/06 14:15:44;;;;;;;2.00;1.23;;;;;;;;;;5018066;28;20635;-46
2021/01/06 14:18:42;;;;;;;2.10;1.17;;;;;;;;;;4997771;28;20038;-49
2021/01/06 14:21:12;;;;;;;1.88;1.20;;;;;;;;;;4992615;28;20107;-47
2021/01/06 14:23:47;;;;;;;2.03;0.93;;;;;;;;;;5025180;28;20022;-47
2021/01/06 14:26:30;;;;;;;1.35;1.00;;;;;;;;;;4989308;28;20038;-47
2021/01/06 14:29:14;;;;;;;1.40;1.13;;;;;;;;;;4993753;28;20031;-46
2021/01/06 14:31:41;;;;;;;1.48;0.82;;;;;;;;;;4991563;28;20046;-46
2021/01/06 14:34:17;;;;;;;9.52;1.20;;;;;;;;;;4992875;28;20089;-45
2021/01/06 14:36:47;;;;;;;3.20;1.00;;;;;;;;;;4984087;28;20019;-45
2021/01/06 14:39:28;;;;;;;3.97;1.20;;;;;;;;;;5015892;28;20185;-48
2021/01/06 14:41:56;;;;;;;2.38;1.20;;;;;;;;;;4986661;28;20065;-46
2021/01/06 14:44:34;;;;;;;1.90;1.10;;;;;;;;;;4992256;28;20029;-43
2021/01/06 14:47:08;;;;;;;4.88;1.10;;;;;;;;;;5005994;28;20042;-47
2021/01/06 14:49:35;;;;;;;2.38;1.20;;;;;;;;;;4989227;28;20025;-46
2021/01/06 14:52:16;;;;;;;4.55;1.08;;;;;;;;;;4986173;28;20038;-48
2021/01/06 14:55:10;;;;;;;2.47;0.98;;;;;;;;;;4985567;28;20032;-46
2021/01/06 14:57:35;;;;;;;5.85;1.10;;;;;;;;;;4985440;28;20396;-48
2021/01/06 15:00:13;;;;;;;1.58;1.00;;;;;;;;;;4989261;28;20018;-45
2021/01/06 15:02:40;;;;;;;1.67;0.93;;;;;;;;;;4987417;28;20075;-47
2021/01/06 15:05:28;;;;;;;1.33;0.95;;;;;;;;;;4982156;28;20404;-46
2021/01/06 15:08:00;;;;;;;1.67;0.90;;;;;;;;;;4988378;28;20041;-48
2021/01/06 15:10:28;;;;;;;4.15;1.20;;;;;;;;;;4988088;28;20022;-47
2021/01/06 15:13:00;;;;;;;2.28;0.90;;;;;;;;;;4989274;28;20563;-47
2021/01/06 15:15:28;;;;;;;2.45;0.80;;;;;;;;;;4986552;28;20030;-47
2021/01/06 15:17:54;;;;;;;1.95;0.98;;;;;;;;;;4990571;28;20031;-47
2021/01/06 15:20:29;;;;;;;1.95;1.02;;;;;;;;;;4973463;28;20031;-48
2021/01/06 15:22:58;;;;;;;2.17;0.90;;;;;;;;;;4974482;28;20540;-45